Easton, WA

1:56 PM PST on February 27, 2017 (GMT -0800)
Cle Elum Wa - GiddyLodge | | Change Station

Elev 2117 ft 47.21 °N, 121.11 °W | Updated 6 minutes ago

Snow
Snow
32.0 °F
Feels Like 32 °F
N
0.0
Wind Variable Wind from NE
Gusts 0.0 mph

Today
High -- | Low -- °F
--% Chance of Precip.
Yesterday
High -- | Low -- °F
Precip. -- in
Pressure 29.67 in
Visibility 10.0 miles
Clouds Few 1100 ft
Few 1900 ft
Overcast 7500 ft
Windchill 32 °F
Dew Point 29 °F
Humidity 90%
Rainfall 0.05 in
Snow Depth Not available.
6:47 AM 5:47 PM
New Moon, 2% visible
METAR KELN 272153Z AUTO 00000KT 10SM FEW011 FEW019 OVC075 03/M03 A2962 RMK AO2 SLP045 T00281033
Pressure 29.67 in
Visibility 10.0 miles
Clouds Few 1100 ft
Few 1900 ft
Overcast 7500 ft
Windchill 32 °F
Dew Point 29 °F
Humidity 90%
Rainfall 0.05 in
Snow Depth Not available.
6:47 AM 5:47 PM
New Moon, 2% visible
METAR KELN 272153Z AUTO 00000KT 10SM FEW011 FEW019 OVC075 03/M03 A2962 RMK AO2 SLP045 T00281033

Get Your Daily Forecast Email!

Thanks for signing up!

Be on the lookout for a verification email in your inbox.

You'll start receiving the daily forecast at 8 AM.

×

10-Day Weather Forecast

Almanac

Astronomy

Feb. 27, 2017 Rise Set
Actual Time
Civil Twilight
Nautical Twilight
Astronomical Twilight
Moon
Length of Visible Light
Length of Day
Tomorrow will be .
, % of the Moon is Illuminated

Today's Extremes

State Highs State Lows

Community

WunderPhotos

Upload Photos

1,962,540 photos uploaded!

WunderBlog® & News

Nearby

Air Quality

  Air Quality AQ Index Pollutant
Not available.

Snow Depth

Station Depth Elevation

Earthquake Activity

City Distance Mag. Time & Date
Minimum magnitude displayed is 2.5.

Coastal Water Temperatures

Place Temperature

Stations

Nearby Weather Stations

Station Location Temp. Windchill Dew Point Humidity Wind Precip. Elev Updated Type
                   

Watches & Warnings

There are currently no watches in effect.